sensor_id;sensor_type;location;lat;lon;timestamp;pressure;altitude;pressure_sealevel;temperature;humidity
37792;BME280;29527;55.766;37.570;2022-09-09T00:00:12;100554.25;;;8.29;60.16
37792;BME280;29527;55.766;37.570;2022-09-09T00:02:38;100560.53;;;8.28;60.45
37792;BME280;29527;55.766;37.570;2022-09-09T00:08:03;100571.03;;;8.31;60.25
37792;BME280;29527;55.766;37.570;2022-09-09T00:10:32;100571.22;;;8.28;60.32
37792;BME280;29527;55.766;37.570;2022-09-09T00:20:48;100567.78;;;8.26;60.81
37792;BME280;29527;55.766;37.570;2022-09-09T00:23:28;100576.72;;;8.25;60.80
37792;BME280;29527;55.766;37.570;2022-09-09T00:31:38;100560.25;;;8.02;60.77
37792;BME280;29527;55.766;37.570;2022-09-09T00:34:11;100580.22;;;8.11;60.83
37792;BME280;29527;55.766;37.570;2022-09-09T00:36:38;100582.25;;;8.05;61.11
37792;BME280;29527;55.766;37.570;2022-09-09T00:39:04;100579.69;;;8.04;61.09
37792;BME280;29527;55.766;37.570;2022-09-09T00:44:33;100584.66;;;8.10;60.81
37792;BME280;29527;55.766;37.570;2022-09-09T00:52:29;100587.59;;;8.05;61.13
37792;BME280;29527;55.766;37.570;2022-09-09T00:55:23;100593.81;;;8.06;61.50
37792;BME280;29527;55.766;37.570;2022-09-09T00:57:51;100592.69;;;7.94;61.50
37792;BME280;29527;55.766;37.570;2022-09-09T01:00:23;100581.78;;;7.83;61.66
37792;BME280;29527;55.766;37.570;2022-09-09T01:11:33;100605.00;;;7.97;61.24
37792;BME280;29527;55.766;37.570;2022-09-09T01:17:30;100602.50;;;7.94;61.31
37792;BME280;29527;55.766;37.570;2022-09-09T01:20:10;100611.97;;;7.83;61.40
37792;BME280;29527;55.766;37.570;2022-09-09T01:28:09;100613.47;;;7.73;61.46
37792;BME280;29527;55.766;37.570;2022-09-09T01:30:38;100618.84;;;7.71;61.70
37792;BME280;29527;55.766;37.570;2022-09-09T01:33:07;100612.22;;;7.63;61.74
37792;BME280;29527;55.766;37.570;2022-09-09T01:35:57;100618.63;;;7.60;62.08
37792;BME280;29527;55.766;37.570;2022-09-09T01:38:22;100619.81;;;7.54;62.50
37792;BME280;29527;55.766;37.570;2022-09-09T01:40:49;100618.75;;;7.41;62.71
37792;BME280;29527;55.766;37.570;2022-09-09T01:43:18;100603.94;;;7.19;62.90
37792;BME280;29527;55.766;37.570;2022-09-09T01:45:45;100622.69;;;7.33;63.20
37792;BME280;29527;55.766;37.570;2022-09-09T01:48:11;100623.88;;;7.28;63.38
37792;BME280;29527;55.766;37.570;2022-09-09T01:50:37;100628.97;;;7.32;63.49
37792;BME280;29527;55.766;37.570;2022-09-09T01:53:03;100639.53;;;7.34;63.05
37792;BME280;29527;55.766;37.570;2022-09-09T01:55:37;100635.66;;;7.40;63.23
37792;BME280;29527;55.766;37.570;2022-09-09T02:01:22;100646.63;;;7.51;63.08
37792;BME280;29527;55.766;37.570;2022-09-09T02:03:56;100639.66;;;7.49;62.87
37792;BME280;29527;55.766;37.570;2022-09-09T02:06:30;100641.28;;;7.51;62.85
37792;BME280;29527;55.766;37.570;2022-09-09T02:09:02;100652.91;;;7.50;62.65
37792;BME280;29527;55.766;37.570;2022-09-09T02:11:30;100645.75;;;7.51;62.79
37792;BME280;29527;55.766;37.570;2022-09-09T02:14:08;100644.38;;;7.59;63.08
37792;BME280;29527;55.766;37.570;2022-09-09T02:17:03;100650.25;;;7.66;62.82
37792;BME280;29527;55.766;37.570;2022-09-09T02:19:36;100636.75;;;7.53;62.71
37792;BME280;29527;55.766;37.570;2022-09-09T02:22:03;100625.13;;;7.38;62.44
37792;BME280;29527;55.766;37.570;2022-09-09T02:24:33;100650.91;;;7.54;62.71
37792;BME280;29527;55.766;37.570;2022-09-09T02:27:02;100655.47;;;7.52;63.23
37792;BME280;29527;55.766;37.570;2022-09-09T02:29:35;100653.84;;;7.49;63.02
37792;BME280;29527;55.766;37.570;2022-09-09T02:32:06;100661.31;;;7.42;63.07
37792;BME280;29527;55.766;37.570;2022-09-09T02:34:35;100656.38;;;7.35;63.19
37792;BME280;29527;55.766;37.570;2022-09-09T02:37:03;100662.03;;;7.28;63.55
37792;BME280;29527;55.766;37.570;2022-09-09T02:39:29;100661.41;;;7.23;63.49
37792;BME280;29527;55.766;37.570;2022-09-09T02:41:54;100666.91;;;7.20;63.53
37792;BME280;29527;55.766;37.570;2022-09-09T02:44:20;100668.09;;;7.14;63.73
37792;BME280;29527;55.766;37.570;2022-09-09T02:49:34;100675.72;;;7.04;64.40
37792;BME280;29527;55.766;37.570;2022-09-09T02:52:07;100684.25;;;6.94;64.71
37792;BME280;29527;55.766;37.570;2022-09-09T02:54:35;100683.25;;;6.79;65.16
37792;BME280;29527;55.766;37.570;2022-09-09T02:57:14;100691.22;;;6.79;65.30
37792;BME280;29527;55.766;37.570;2022-09-09T02:59:43;100691.00;;;6.66;65.43
37792;BME280;29527;55.766;37.570;2022-09-09T03:02:09;100694.09;;;6.56;66.10
37792;BME280;29527;55.766;37.570;2022-09-09T03:04:37;100694.41;;;6.50;66.31
37792;BME280;29527;55.766;37.570;2022-09-09T03:07:03;100692.75;;;6.47;66.39
37792;BME280;29527;55.766;37.570;2022-09-09T03:09:29;100700.97;;;6.43;66.82
37792;BME280;29527;55.766;37.570;2022-09-09T03:11:55;100690.72;;;6.35;66.96
37792;BME280;29527;55.766;37.570;2022-09-09T03:14:21;100704.78;;;6.37;66.82
37792;BME280;29527;55.766;37.570;2022-09-09T03:16:52;100707.31;;;6.40;67.15
37792;BME280;29527;55.766;37.570;2022-09-09T03:19:19;100691.41;;;6.39;66.99
37792;BME280;29527;55.766;37.570;2022-09-09T03:21:46;100707.09;;;6.63;66.85
37792;BME280;29527;55.766;37.570;2022-09-09T03:24:12;100712.28;;;6.83;65.97
37792;BME280;29527;55.766;37.570;2022-09-09T03:26:38;100691.38;;;7.11;65.63
37792;BME280;29527;55.766;37.570;2022-09-09T03:29:05;100698.50;;;7.94;63.20
37792;BME280;29527;55.766;37.570;2022-09-09T03:31:32;100699.19;;;9.07;59.35
37792;BME280;29527;55.766;37.570;2022-09-09T03:33:58;100687.19;;;10.14;55.87
37792;BME280;29527;55.766;37.570;2022-09-09T03:36:25;100704.44;;;11.05;53.32
37792;BME280;29527;55.766;37.570;2022-09-09T03:38:52;100698.50;;;11.90;50.72
37792;BME280;29527;55.766;37.570;2022-09-09T03:41:17;100713.28;;;12.82;48.33
37792;BME280;29527;55.766;37.570;2022-09-09T03:43:43;100704.78;;;13.58;46.33
37792;BME280;29527;55.766;37.570;2022-09-09T03:46:09;100710.25;;;14.14;44.71
37792;BME280;29527;55.766;37.570;2022-09-09T03:48:34;100714.41;;;14.73;43.38
37792;BME280;29527;55.766;37.570;2022-09-09T03:50:59;100704.72;;;15.34;41.74
37792;BME280;29527;55.766;37.570;2022-09-09T03:53:27;100716.06;;;15.90;40.38
37792;BME280;29527;55.766;37.570;2022-09-09T03:55:54;100715.34;;;16.39;39.39
37792;BME280;29527;55.766;37.570;2022-09-09T03:58:21;100718.50;;;16.84;38.47
37792;BME280;29527;55.766;37.570;2022-09-09T04:00:57;100711.88;;;17.45;37.49
37792;BME280;29527;55.766;37.570;2022-09-09T04:03:23;100722.47;;;17.76;36.31
37792;BME280;29527;55.766;37.570;2022-09-09T04:05:53;100718.44;;;18.18;35.64
37792;BME280;29527;55.766;37.570;2022-09-09T04:08:20;100715.00;;;18.62;34.65
37792;BME280;29527;55.766;37.570;2022-09-09T04:10:47;100712.56;;;19.14;33.69
37792;BME280;29527;55.766;37.570;2022-09-09T04:13:16;100716.66;;;19.71;32.48
37792;BME280;29527;55.766;37.570;2022-09-09T04:15:43;100709.06;;;20.17;31.87
37792;BME280;29527;55.766;37.570;2022-09-09T04:18:10;100705.94;;;20.72;30.83
37792;BME280;29527;55.766;37.570;2022-09-09T04:20:37;100703.19;;;21.38;29.47
37792;BME280;29527;55.766;37.570;2022-09-09T04:23:03;100723.44;;;22.08;28.39
37792;BME280;29527;55.766;37.570;2022-09-09T04:25:28;100721.34;;;22.74;27.23
37792;BME280;29527;55.766;37.570;2022-09-09T04:27:54;100731.06;;;23.53;26.21
37792;BME280;29527;55.766;37.570;2022-09-09T04:30:20;100725.09;;;24.25;24.86
37792;BME280;29527;55.766;37.570;2022-09-09T04:32:46;100715.28;;;24.89;24.12
37792;BME280;29527;55.766;37.570;2022-09-09T04:35:11;100711.16;;;25.28;23.74
37792;BME280;29527;55.766;37.570;2022-09-09T04:37:37;100717.91;;;26.03;22.74
37792;BME280;29527;55.766;37.570;2022-09-09T04:40:03;100727.75;;;26.26;21.76
37792;BME280;29527;55.766;37.570;2022-09-09T04:42:28;100727.00;;;26.52;21.33
37792;BME280;29527;55.766;37.570;2022-09-09T04:44:54;100723.47;;;26.92;21.17
37792;BME280;29527;55.766;37.570;2022-09-09T04:47:19;100716.06;;;27.40;20.23
37792;BME280;29527;55.766;37.570;2022-09-09T04:49:45;100724.50;;;27.65;19.85
37792;BME280;29527;55.766;37.570;2022-09-09T04:52:10;100719.13;;;27.90;19.63
37792;BME280;29527;55.766;37.570;2022-09-09T04:54:36;100722.44;;;28.58;18.75
37792;BME280;29527;55.766;37.570;2022-09-09T04:57:01;100725.13;;;29.48;18.10
37792;BME280;29527;55.766;37.570;2022-09-09T04:59:27;100726.28;;;29.96;17.21
37792;BME280;29527;55.766;37.570;2022-09-09T05:01:52;100727.56;;;30.31;16.61
37792;BME280;29527;55.766;37.570;2022-09-09T05:04:20;100719.88;;;30.33;16.77
37792;BME280;29527;55.766;37.570;2022-09-09T05:06:46;100726.81;;;30.54;16.69
37792;BME280;29527;55.766;37.570;2022-09-09T05:09:11;100735.66;;;30.63;16.33
37792;BME280;29527;55.766;37.570;2022-09-09T05:11:37;100731.56;;;30.65;15.93
37792;BME280;29527;55.766;37.570;2022-09-09T05:14:04;100738.84;;;31.02;16.05
37792;BME280;29527;55.766;37.570;2022-09-09T05:16:30;100745.13;;;31.33;15.18
37792;BME280;29527;55.766;37.570;2022-09-09T05:18:56;100742.63;;;31.68;14.81
37792;BME280;29527;55.766;37.570;2022-09-09T05:21:23;100753.38;;;32.05;14.54
37792;BME280;29527;55.766;37.570;2022-09-09T05:23:50;100744.53;;;32.32;14.48
37792;BME280;29527;55.766;37.570;2022-09-09T05:26:18;100752.44;;;32.69;14.38
37792;BME280;29527;55.766;37.570;2022-09-09T05:28:44;100751.91;;;33.35;13.52
37792;BME280;29527;55.766;37.570;2022-09-09T05:31:11;100744.94;;;33.95;13.26
37792;BME280;29527;55.766;37.570;2022-09-09T05:33:39;100751.03;;;34.36;12.52
37792;BME280;29527;55.766;37.570;2022-09-09T05:36:11;100760.25;;;34.64;12.41
37792;BME280;29527;55.766;37.570;2022-09-09T05:38:38;100753.63;;;34.43;12.49
37792;BME280;29527;55.766;37.570;2022-09-09T05:41:04;100754.47;;;34.71;12.33
37792;BME280;29527;55.766;37.570;2022-09-09T05:43:30;100746.56;;;35.60;11.63
37792;BME280;29527;55.766;37.570;2022-09-09T05:48:35;100757.47;;;35.72;11.67
37792;BME280;29527;55.766;37.570;2022-09-09T05:51:03;100744.38;;;35.68;11.36
37792;BME280;29527;55.766;37.570;2022-09-09T05:53:29;100754.13;;;35.70;11.19
37792;BME280;29527;55.766;37.570;2022-09-09T05:56:07;100757.84;;;36.55;10.73
37792;BME280;29527;55.766;37.570;2022-09-09T05:58:34;100753.44;;;36.01;10.61
37792;BME280;29527;55.766;37.570;2022-09-09T06:01:03;100754.16;;;36.49;10.51
37792;BME280;29527;55.766;37.570;2022-09-09T06:03:29;100740.22;;;37.58;9.97
37792;BME280;29527;55.766;37.570;2022-09-09T06:06:00;100754.38;;;37.88;9.79
37792;BME280;29527;55.766;37.570;2022-09-09T06:08:25;100758.34;;;37.76;9.79
37792;BME280;29527;55.766;37.570;2022-09-09T06:10:51;100735.09;;;37.97;9.09
37792;BME280;29527;55.766;37.570;2022-09-09T06:13:17;100765.38;;;38.29;9.21
37792;BME280;29527;55.766;37.570;2022-09-09T06:15:50;100767.00;;;38.41;9.57
37792;BME280;29527;55.766;37.570;2022-09-09T06:18:18;100776.84;;;38.28;9.33
37792;BME280;29527;55.766;37.570;2022-09-09T06:20:54;100781.09;;;38.70;9.21
37792;BME280;29527;55.766;37.570;2022-09-09T06:23:19;100770.09;;;38.34;8.91
37792;BME280;29527;55.766;37.570;2022-09-09T06:25:45;100772.91;;;38.79;8.82
37792;BME280;29527;55.766;37.570;2022-09-09T06:28:11;100770.22;;;39.03;8.20
37792;BME280;29527;55.766;37.570;2022-09-09T06:30:36;100756.56;;;38.57;8.25
37792;BME280;29527;55.766;37.570;2022-09-09T06:33:02;100747.09;;;37.97;8.60
37792;BME280;29527;55.766;37.570;2022-09-09T06:35:27;100767.72;;;38.12;9.06
37792;BME280;29527;55.766;37.570;2022-09-09T06:37:53;100776.00;;;38.77;8.50
37792;BME280;29527;55.766;37.570;2022-09-09T06:40:19;100772.38;;;38.77;8.12
37792;BME280;29527;55.766;37.570;2022-09-09T06:42:44;100776.13;;;38.62;8.27
37792;BME280;29527;55.766;37.570;2022-09-09T06:45:10;100776.22;;;38.41;8.46
37792;BME280;29527;55.766;37.570;2022-09-09T06:47:36;100756.56;;;38.57;8.51
37792;BME280;29527;55.766;37.570;2022-09-09T06:50:01;100755.81;;;39.21;7.71
37792;BME280;29527;55.766;37.570;2022-09-09T06:52:28;100778.97;;;36.35;9.38
37792;BME280;29527;55.766;37.570;2022-09-09T06:54:53;100793.88;;;34.40;10.93
37792;BME280;29527;55.766;37.570;2022-09-09T06:57:19;100794.44;;;34.42;10.74
37792;BME280;29527;55.766;37.570;2022-09-09T06:59:45;100792.06;;;31.28;13.36
37792;BME280;29527;55.766;37.570;2022-09-09T07:02:10;100801.47;;;27.99;15.70
37792;BME280;29527;55.766;37.570;2022-09-09T07:04:36;100813.31;;;25.44;18.25
37792;BME280;29527;55.766;37.570;2022-09-09T07:07:02;100791.53;;;27.84;16.30
37792;BME280;29527;55.766;37.570;2022-09-09T07:09:28;100795.91;;;28.26;15.81
37792;BME280;29527;55.766;37.570;2022-09-09T07:11:54;100798.44;;;26.72;17.29
37792;BME280;29527;55.766;37.570;2022-09-09T07:14:20;100804.78;;;25.32;18.85
37792;BME280;29527;55.766;37.570;2022-09-09T07:16:47;100811.13;;;23.77;20.14
37792;BME280;29527;55.766;37.570;2022-09-09T07:19:13;100821.31;;;22.35;22.12
37792;BME280;29527;55.766;37.570;2022-09-09T07:21:39;100815.72;;;21.05;24.03
37792;BME280;29527;55.766;37.570;2022-09-09T07:24:08;100810.72;;;22.80;22.04
37792;BME280;29527;55.766;37.570;2022-09-09T07:26:35;100810.28;;;23.91;20.68
37792;BME280;29527;55.766;37.570;2022-09-09T07:29:01;100776.91;;;23.04;21.10
37792;BME280;29527;55.766;37.570;2022-09-09T07:31:32;100815.84;;;22.43;22.26
37792;BME280;29527;55.766;37.570;2022-09-09T07:33:59;100812.25;;;23.06;21.74
37792;BME280;29527;55.766;37.570;2022-09-09T07:36:28;100825.72;;;22.76;21.36
37792;BME280;29527;55.766;37.570;2022-09-09T07:38:59;100825.00;;;24.35;20.36
37792;BME280;29527;55.766;37.570;2022-09-09T07:41:33;100822.25;;;27.74;16.29
37792;BME280;29527;55.766;37.570;2022-09-09T07:43:59;100821.47;;;26.71;16.58
37792;BME280;29527;55.766;37.570;2022-09-09T07:46:29;100820.88;;;24.76;18.67
37792;BME280;29527;55.766;37.570;2022-09-09T07:48:55;100839.97;;;23.18;21.14
37792;BME280;29527;55.766;37.570;2022-09-09T07:51:26;100846.16;;;22.08;22.70
37792;BME280;29527;55.766;37.570;2022-09-09T07:53:54;100837.81;;;20.94;23.68
37792;BME280;29527;55.766;37.570;2022-09-09T07:56:20;100849.78;;;20.23;24.23
37792;BME280;29527;55.766;37.570;2022-09-09T07:58:50;100844.16;;;20.17;24.41
37792;BME280;29527;55.766;37.570;2022-09-09T08:01:22;100853.72;;;20.29;24.74
37792;BME280;29527;55.766;37.570;2022-09-09T08:03:57;100854.69;;;19.67;24.99
37792;BME280;29527;55.766;37.570;2022-09-09T08:06:27;100843.78;;;19.04;25.73
37792;BME280;29527;55.766;37.570;2022-09-09T08:08:53;100832.75;;;18.88;25.52
37792;BME280;29527;55.766;37.570;2022-09-09T08:11:23;100839.88;;;18.89;25.47
37792;BME280;29527;55.766;37.570;2022-09-09T08:13:50;100835.66;;;18.76;25.23
37792;BME280;29527;55.766;37.570;2022-09-09T08:16:19;100832.91;;;18.58;26.25
37792;BME280;29527;55.766;37.570;2022-09-09T08:18:47;100838.06;;;18.33;27.37
37792;BME280;29527;55.766;37.570;2022-09-09T08:21:16;100836.63;;;18.01;28.44
37792;BME280;29527;55.766;37.570;2022-09-09T08:23:44;100840.66;;;17.68;28.77
37792;BME280;29527;55.766;37.570;2022-09-09T08:26:18;100842.53;;;17.57;28.52
37792;BME280;29527;55.766;37.570;2022-09-09T08:28:52;100841.97;;;17.44;28.83
37792;BME280;29527;55.766;37.570;2022-09-09T08:31:19;100846.09;;;17.08;29.77
37792;BME280;29527;55.766;37.570;2022-09-09T08:33:46;100843.91;;;16.83;30.13
37792;BME280;29527;55.766;37.570;2022-09-09T08:36:14;100820.41;;;16.73;30.41
37792;BME280;29527;55.766;37.570;2022-09-09T08:38:41;100848.47;;;16.82;30.41
37792;BME280;29527;55.766;37.570;2022-09-09T08:49:50;100858.53;;;16.19;31.66
37792;BME280;29527;55.766;37.570;2022-09-09T08:52:37;100866.25;;;16.03;32.05
37792;BME280;29527;55.766;37.570;2022-09-09T08:55:25;100864.84;;;15.87;32.55
37792;BME280;29527;55.766;37.570;2022-09-09T08:57:55;100850.13;;;15.49;33.07
37792;BME280;29527;55.766;37.570;2022-09-09T09:00:22;100851.88;;;15.39;33.27
37792;BME280;29527;55.766;37.570;2022-09-09T09:03:13;100864.97;;;15.64;32.36
37792;BME280;29527;55.766;37.570;2022-09-09T09:10:58;100872.56;;;15.71;32.47
37792;BME280;29527;55.766;37.570;2022-09-09T09:18:49;100856.16;;;16.36;31.41
37792;BME280;29527;55.766;37.570;2022-09-09T09:21:43;100834.22;;;16.19;31.46
37792;BME280;29527;55.766;37.570;2022-09-09T09:24:18;100858.03;;;16.35;31.68
37792;BME280;29527;55.766;37.570;2022-09-09T09:26:44;100853.44;;;16.36;32.02
37792;BME280;29527;55.766;37.570;2022-09-09T09:29:17;100835.38;;;16.27;32.26
37792;BME280;29527;55.766;37.570;2022-09-09T09:31:54;100860.88;;;16.44;31.84
37792;BME280;29527;55.766;37.570;2022-09-09T09:34:21;100871.75;;;16.23;31.70
37792;BME280;29527;55.766;37.570;2022-09-09T09:39:36;100859.84;;;16.35;31.36
37792;BME280;29527;55.766;37.570;2022-09-09T09:42:11;100865.63;;;16.20;31.71
37792;BME280;29527;55.766;37.570;2022-09-09T09:44:39;100845.97;;;16.49;30.97
37792;BME280;29527;55.766;37.570;2022-09-09T09:47:15;100855.47;;;16.44;30.82
37792;BME280;29527;55.766;37.570;2022-09-09T09:50:00;100861.19;;;15.67;31.86
37792;BME280;29527;55.766;37.570;2022-09-09T09:52:30;100862.25;;;15.22;32.63
37792;BME280;29527;55.766;37.570;2022-09-09T09:54:57;100864.47;;;15.17;32.64
37792;BME280;29527;55.766;37.570;2022-09-09T09:57:27;100863.81;;;15.57;32.61
37792;BME280;29527;55.766;37.570;2022-09-09T10:00:16;100861.84;;;16.33;31.38
37792;BME280;29527;55.766;37.570;2022-09-09T10:02:44;100854.53;;;16.64;30.56
37792;BME280;29527;55.766;37.570;2022-09-09T10:05:14;100859.38;;;17.02;30.02
37792;BME280;29527;55.766;37.570;2022-09-09T10:07:41;100834.44;;;16.98;30.16
37792;BME280;29527;55.766;37.570;2022-09-09T10:10:22;100854.34;;;16.97;30.70
37792;BME280;29527;55.766;37.570;2022-09-09T10:12:53;100863.34;;;16.57;31.40
37792;BME280;29527;55.766;37.570;2022-09-09T10:26:58;100856.53;;;15.15;33.07
37792;BME280;29527;55.766;37.570;2022-09-09T10:32:48;100857.34;;;15.48;31.99
37792;BME280;29527;55.766;37.570;2022-09-09T10:41:45;100874.00;;;16.48;31.73
37792;BME280;29527;55.766;37.570;2022-09-09T10:55:20;100849.84;;;15.73;32.68
37792;BME280;29527;55.766;37.570;2022-09-09T10:57:53;100802.44;;;15.17;32.70
37792;BME280;29527;55.766;37.570;2022-09-09T11:03:03;100871.03;;;15.35;33.44
37792;BME280;29527;55.766;37.570;2022-09-09T11:05:51;100864.81;;;15.24;33.45
37792;BME280;29527;55.766;37.570;2022-09-09T11:11:01;100868.03;;;15.17;33.29
37792;BME280;29527;55.766;37.570;2022-09-09T11:18:59;100867.63;;;16.18;30.96
37792;BME280;29527;55.766;37.570;2022-09-09T11:21:37;100859.84;;;16.35;30.99
37792;BME280;29527;55.766;37.570;2022-09-09T11:32:12;100873.31;;;15.73;32.39
37792;BME280;29527;55.766;37.570;2022-09-09T11:42:33;100877.22;;;14.71;33.04
37792;BME280;29527;55.766;37.570;2022-09-09T11:45:09;100851.63;;;14.42;33.56
37792;BME280;29527;55.766;37.570;2022-09-09T11:47:36;100846.72;;;14.13;33.74
37792;BME280;29527;55.766;37.570;2022-09-09T11:52:42;100866.19;;;14.51;34.80
37792;BME280;29527;55.766;37.570;2022-09-09T11:55:30;100877.75;;;15.09;34.01
37792;BME280;29527;55.766;37.570;2022-09-09T11:58:05;100868.66;;;15.42;33.51
37792;BME280;29527;55.766;37.570;2022-09-09T12:00:48;100837.91;;;15.55;33.31
37792;BME280;29527;55.766;37.570;2022-09-09T12:03:34;100869.88;;;15.71;33.21
37792;BME280;29527;55.766;37.570;2022-09-09T12:08:41;100861.56;;;15.41;33.20
37792;BME280;29527;55.766;37.570;2022-09-09T12:11:08;100848.72;;;15.01;32.84
37792;BME280;29527;55.766;37.570;2022-09-09T12:13:33;100863.81;;;14.92;33.25
37792;BME280;29527;55.766;37.570;2022-09-09T12:15:59;100866.03;;;14.87;33.26
37792;BME280;29527;55.766;37.570;2022-09-09T12:18:38;100843.47;;;14.99;32.60
37792;BME280;29527;55.766;37.570;2022-09-09T12:24:00;100831.06;;;15.50;31.41
37792;BME280;29527;55.766;37.570;2022-09-09T12:27:33;100858.41;;;16.00;30.84
37792;BME280;29527;55.766;37.570;2022-09-09T12:29:54;100851.47;;;16.07;30.35
37792;BME280;29527;55.766;37.570;2022-09-09T12:32:25;100855.88;;;16.29;30.59
37792;BME280;29527;55.766;37.570;2022-09-09T12:38:00;100858.56;;;16.70;30.69
37792;BME280;29527;55.766;37.570;2022-09-09T12:40:32;100859.22;;;16.53;30.72
37792;BME280;29527;55.766;37.570;2022-09-09T12:43:01;100851.59;;;15.96;31.78
37792;BME280;29527;55.766;37.570;2022-09-09T12:45:32;100861.84;;;15.81;32.56
37792;BME280;29527;55.766;37.570;2022-09-09T12:50:29;100854.59;;;15.60;33.23
37792;BME280;29527;55.766;37.570;2022-09-09T12:52:57;100835.28;;;15.43;32.95
37792;BME280;29527;55.766;37.570;2022-09-09T12:55:28;100852.75;;;15.60;32.82
37792;BME280;29527;55.766;37.570;2022-09-09T12:57:56;100862.34;;;15.53;32.79
37792;BME280;29527;55.766;37.570;2022-09-09T13:00:24;100856.69;;;15.56;32.62
37792;BME280;29527;55.766;37.570;2022-09-09T13:02:51;100847.22;;;15.62;32.28
37792;BME280;29527;55.766;37.570;2022-09-09T13:05:28;100855.78;;;15.88;32.68
37792;BME280;29527;55.766;37.570;2022-09-09T13:08:08;100848.06;;;16.05;31.55
37792;BME280;29527;55.766;37.570;2022-09-09T13:10:46;100857.69;;;16.29;30.64
37792;BME280;29527;55.766;37.570;2022-09-09T13:13:21;100852.22;;;16.50;30.25
37792;BME280;29527;55.766;37.570;2022-09-09T13:16:01;100849.56;;;16.70;29.83
37792;BME280;29527;55.766;37.570;2022-09-09T13:18:45;100853.72;;;16.84;29.96
37792;BME280;29527;55.766;37.570;2022-09-09T13:21:12;100848.56;;;16.61;29.88
37792;BME280;29527;55.766;37.570;2022-09-09T13:23:38;100857.50;;;16.52;30.39
37792;BME280;29527;55.766;37.570;2022-09-09T13:26:06;100847.38;;;16.44;30.63
37792;BME280;29527;55.766;37.570;2022-09-09T13:28:46;100856.63;;;16.41;30.40
37792;BME280;29527;55.766;37.570;2022-09-09T13:31:29;100858.91;;;16.46;30.66
37792;BME280;29527;55.766;37.570;2022-09-09T13:33:56;100857.88;;;16.37;30.83
37792;BME280;29527;55.766;37.570;2022-09-09T13:36:33;100861.56;;;16.36;30.89
37792;BME280;29527;55.766;37.570;2022-09-09T13:39:02;100861.13;;;16.00;31.76
37792;BME280;29527;55.766;37.570;2022-09-09T13:41:36;100863.28;;;15.85;31.90
37792;BME280;29527;55.766;37.570;2022-09-09T13:44:05;100854.44;;;15.61;32.11
37792;BME280;29527;55.766;37.570;2022-09-09T13:46:36;100834.88;;;15.27;32.42
37792;BME280;29527;55.766;37.570;2022-09-09T13:51:36;100856.25;;;14.86;33.50
37792;BME280;29527;55.766;37.570;2022-09-09T13:54:06;100862.88;;;14.59;34.56
37792;BME280;29527;55.766;37.570;2022-09-09T13:56:34;100856.66;;;14.24;35.31
37792;BME280;29527;55.766;37.570;2022-09-09T13:59:01;100855.06;;;13.99;35.69
37792;BME280;29527;55.766;37.570;2022-09-09T14:01:27;100858.47;;;13.78;36.01
37792;BME280;29527;55.766;37.570;2022-09-09T14:03:53;100856.53;;;13.56;36.56
37792;BME280;29527;55.766;37.570;2022-09-09T14:06:19;100847.69;;;13.42;36.83
37792;BME280;29527;55.766;37.570;2022-09-09T14:08:49;100858.53;;;13.29;36.97
37792;BME280;29527;55.766;37.570;2022-09-09T14:11:15;100842.06;;;13.10;36.60
37792;BME280;29527;55.766;37.570;2022-09-09T14:13:41;100853.78;;;13.09;36.54
37792;BME280;29527;55.766;37.570;2022-09-09T14:16:06;100852.31;;;13.04;36.52
37792;BME280;29527;55.766;37.570;2022-09-09T14:18:32;100851.16;;;12.96;36.84
37792;BME280;29527;55.766;37.570;2022-09-09T14:20:59;100848.38;;;12.84;37.10
37792;BME280;29527;55.766;37.570;2022-09-09T14:23:24;100847.03;;;12.78;37.04
37792;BME280;29527;55.766;37.570;2022-09-09T14:25:51;100855.84;;;12.81;36.98
37792;BME280;29527;55.766;37.570;2022-09-09T14:28:16;100855.84;;;12.81;37.96
37792;BME280;29527;55.766;37.570;2022-09-09T14:30:43;100856.69;;;12.81;37.52
37792;BME280;29527;55.766;37.570;2022-09-09T14:33:11;100855.84;;;12.81;37.55
37792;BME280;29527;55.766;37.570;2022-09-09T14:35:37;100850.78;;;12.76;37.61
37792;BME280;29527;55.766;37.570;2022-09-09T14:38:04;100846.41;;;12.75;38.21
37792;BME280;29527;55.766;37.570;2022-09-09T14:40:30;100844.22;;;12.80;38.52
37792;BME280;29527;55.766;37.570;2022-09-09T14:42:55;100817.41;;;12.67;37.65
37792;BME280;29527;55.766;37.570;2022-09-09T14:45:22;100844.69;;;12.74;38.17
37792;BME280;29527;55.766;37.570;2022-09-09T14:47:50;100851.13;;;12.71;37.81
37792;BME280;29527;55.766;37.570;2022-09-09T14:50:17;100847.38;;;12.74;37.74
37792;BME280;29527;55.766;37.570;2022-09-09T14:52:43;100812.72;;;12.58;38.82
37792;BME280;29527;55.766;37.570;2022-09-09T14:55:08;100849.13;;;12.86;38.72
37792;BME280;29527;55.766;37.570;2022-09-09T14:57:35;100812.63;;;12.84;39.50
37792;BME280;29527;55.766;37.570;2022-09-09T15:00:05;100840.22;;;13.10;37.98
37792;BME280;29527;55.766;37.570;2022-09-09T15:02:31;100845.31;;;13.26;38.28
37792;BME280;29527;55.766;37.570;2022-09-09T15:04:56;100849.09;;;13.35;38.23
37792;BME280;29527;55.766;37.570;2022-09-09T15:07:26;100853.16;;;13.41;37.49
37792;BME280;29527;55.766;37.570;2022-09-09T15:09:53;100854.44;;;13.48;37.46
37792;BME280;29527;55.766;37.570;2022-09-09T15:12:20;100849.69;;;13.52;37.44
37792;BME280;29527;55.766;37.570;2022-09-09T15:14:46;100845.41;;;13.49;37.65
37792;BME280;29527;55.766;37.570;2022-09-09T15:17:12;100852.88;;;13.45;37.89
37792;BME280;29527;55.766;37.570;2022-09-09T15:19:38;100850.81;;;13.36;37.38
37792;BME280;29527;55.766;37.570;2022-09-09T15:22:06;100846.16;;;13.27;37.84